createdAt,value
2019-04-03T00:01:30.172Z,54
2019-04-03T00:11:33.747Z,55
2019-04-03T00:21:37.234Z,55
2019-04-03T00:31:40.731Z,55
2019-04-03T00:41:44.383Z,55
2019-04-03T00:51:47.949Z,55
2019-04-03T01:01:51.515Z,54
2019-04-03T01:11:55.039Z,54
2019-04-03T01:21:58.737Z,54
2019-04-03T01:32:02.256Z,54
2019-04-03T01:42:05.768Z,54
2019-04-03T01:52:09.370Z,53
2019-04-03T02:02:13.031Z,54
2019-04-03T02:12:20.514Z,53
2019-04-03T02:22:24.053Z,53
2019-04-03T02:32:27.568Z,53
2019-04-03T02:42:31.113Z,52
2019-04-03T02:52:34.645Z,51
2019-04-03T03:02:38.322Z,52
2019-04-03T03:12:41.841Z,51
2019-04-03T03:22:51.579Z,52
2019-04-03T03:33:39.123Z,52
2019-04-03T03:43:45.652Z,51
2019-04-03T03:53:50.076Z,51
2019-04-03T04:03:53.618Z,51
2019-04-03T04:13:57.125Z,51
2019-04-03T04:24:00.652Z,53
2019-04-03T04:34:04.435Z,53
2019-04-03T04:44:10.746Z,52
2019-04-03T04:54:14.278Z,53
2019-04-03T05:04:17.977Z,53
2019-04-03T05:14:21.530Z,53
2019-04-03T05:24:25.043Z,54
2019-04-03T05:34:28.556Z,45
2019-04-03T05:44:34.010Z,54
2019-04-03T05:54:40.437Z,56
2019-04-03T06:04:44.142Z,58
2019-04-03T06:14:51.128Z,58
2019-04-03T06:24:57.275Z,59
2019-04-03T06:35:00.984Z,60
2019-04-03T06:45:04.887Z,60
2019-04-03T06:55:08.421Z,63
2019-04-03T07:05:12.155Z,63
2019-04-03T07:15:16.867Z,62
2019-04-03T07:25:20.501Z,61
2019-04-03T07:35:24.187Z,62
2019-04-03T07:45:27.670Z,63
2019-04-03T07:55:31.486Z,63
2019-04-03T08:05:34.989Z,64
2019-04-03T08:15:39.018Z,62
2019-04-03T08:25:49.284Z,57
2019-04-03T08:35:53.132Z,54
2019-04-03T08:45:56.827Z,56
2019-04-03T08:56:00.450Z,54
2019-04-03T09:06:04.320Z,54
2019-04-03T09:16:11.163Z,58
2019-04-03T09:26:14.643Z,57
2019-04-03T09:36:18.395Z,61
2019-04-03T09:46:21.914Z,67
2019-04-03T09:56:25.680Z,69
2019-04-03T10:06:32.399Z,70
2019-04-03T10:16:36.533Z,72
2019-04-03T10:26:41.561Z,73
2019-04-03T10:36:45.144Z,75
2019-04-03T10:46:51.233Z,45
2019-04-03T10:56:54.731Z,27
2019-04-03T11:06:58.221Z,60
2019-04-03T11:17:01.690Z,72
2019-04-03T11:27:05.187Z,73
2019-04-03T11:37:08.794Z,75
2019-04-03T11:47:14.742Z,73
2019-04-03T11:57:18.677Z,74
2019-04-03T12:07:25.660Z,75
2019-04-03T12:17:31.215Z,76
2019-04-03T12:27:36.955Z,76
2019-04-03T12:37:40.459Z,76
2019-04-03T12:47:45.476Z,77
2019-04-03T12:57:48.975Z,76
2019-04-03T13:07:52.959Z,75
2019-04-03T13:17:56.890Z,73
2019-04-03T13:28:05.023Z,73
2019-04-03T13:38:08.733Z,72
2019-04-03T13:48:14.637Z,73
2019-04-03T13:58:22.241Z,71
2019-04-03T14:08:25.835Z,70
2019-04-03T14:18:29.740Z,71
2019-04-03T14:28:36.075Z,68
2019-04-03T14:38:40.032Z,66
2019-04-03T14:48:43.947Z,68
2019-04-03T14:58:47.480Z,70
2019-04-03T15:08:56.000Z,69
2019-04-03T15:19:02.871Z,62
2019-04-03T15:29:06.407Z,43
2019-04-03T15:39:10.323Z,40
2019-04-03T15:49:14.318Z,50
2019-04-03T15:59:17.822Z,68
2019-04-03T16:09:21.382Z,75
2019-04-03T16:19:25.054Z,75
2019-04-03T16:29:31.481Z,72
2019-04-03T16:39:35.046Z,71
2019-04-03T16:49:38.574Z,70
2019-04-03T16:59:42.838Z,72
2019-04-03T17:09:46.856Z,70
2019-04-03T17:19:52.441Z,70
2019-04-03T17:29:56.436Z,70
2019-04-03T17:39:59.951Z,70
2019-04-03T17:50:06.506Z,70
2019-04-03T18:00:10.001Z,70
2019-04-03T18:10:13.527Z,69
2019-04-03T18:20:17.022Z,68
2019-04-03T18:30:20.544Z,68
2019-04-03T18:40:24.052Z,68
2019-04-03T18:50:27.969Z,68
2019-04-03T19:00:31.767Z,68
2019-04-03T19:10:35.280Z,68
2019-04-03T19:20:40.537Z,69
2019-04-03T19:30:44.078Z,69
2019-04-03T19:40:47.592Z,69
2019-04-03T19:50:51.116Z,70
2019-04-03T20:00:54.632Z,69
2019-04-03T20:10:58.209Z,68
2019-04-03T20:21:04.524Z,68
2019-04-03T20:31:08.052Z,68
2019-04-03T20:41:11.560Z,69
2019-04-03T20:51:15.064Z,68
2019-04-03T21:01:18.595Z,66
2019-04-03T21:11:22.123Z,66
2019-04-03T21:21:26.339Z,62
2019-04-03T21:31:29.867Z,62
2019-04-03T21:41:33.369Z,64
2019-04-03T21:51:36.911Z,63
2019-04-03T22:01:40.448Z,64
2019-04-03T22:11:43.972Z,64
2019-04-03T22:21:47.495Z,62
2019-04-03T22:31:54.746Z,64
2019-04-03T22:41:58.256Z,61
2019-04-03T22:52:01.755Z,64
2019-04-03T23:02:05.262Z,61
2019-04-03T23:12:08.784Z,63
2019-04-03T23:22:12.287Z,62
2019-04-03T23:32:16.357Z,63
2019-04-03T23:42:19.882Z,62
2019-04-03T23:52:23.410Z,61
